Bushy Park, Australia
Current Conditions -  °F | °C
As of 4:00 PM on Thursday 27 Nov 2014 (Local Time) from YMHB Reporting Station
Few Clouds Few Clouds  
Wind Chill: 63°   Ceiling: Unl
Heat Index: 63°   Visibility: 6mi
Dew Point: 37°   Wind: 22mph
Humidity: 39%   Direction: 170°S
Pressure: 30.18"   Gusts: NA
Location:  42.7°S, 146.88°E
Report Text: YMHB 270500Z 17019KT 9999 FEW055 17/03 Q1022
Loading
Personal Weather Stations






























Interactive Weather Map New forecast layout! Learn more

10-Day Weather Forecast

Advertisements
Track Severe Weather on mobile